createdAt,value
2017-09-17T00:01:39.178Z,98021.84
2017-09-17T00:04:07.562Z,98020.15
2017-09-17T00:06:35.935Z,98014.73
2017-09-17T00:09:05.039Z,98015.16
2017-09-17T00:11:33.409Z,98011.95
2017-09-17T00:14:01.913Z,98012.44
2017-09-17T00:16:30.232Z,98011.33
2017-09-17T00:18:58.547Z,98009.93
2017-09-17T00:21:27.369Z,98009.91
2017-09-17T00:23:55.690Z,98010.13
2017-09-17T00:26:24.016Z,98004.70
2017-09-17T00:28:52.351Z,98003.16
2017-09-17T00:31:24.143Z,98004.92
2017-09-17T00:33:52.478Z,98000.55
2017-09-17T00:36:21.665Z,97996.91
2017-09-17T00:38:50.387Z,97995.83
2017-09-17T00:41:18.739Z,97992.95
2017-09-17T00:43:47.065Z,98002.31
2017-09-17T00:46:16.156Z,98000.20
2017-09-17T00:48:45.249Z,98002.09
2017-09-17T00:51:13.590Z,97995.24
2017-09-17T00:53:41.921Z,97999.43
2017-09-17T00:56:10.260Z,97999.01
2017-09-17T00:58:38.570Z,98001.86
2017-09-17T01:01:07.947Z,97998.03
2017-09-17T01:03:37.117Z,97998.81
2017-09-17T01:06:05.432Z,98002.52
2017-09-17T01:08:33.775Z,97999.66
2017-09-17T01:11:02.093Z,97997.91
2017-09-17T01:13:30.444Z,97999.94
2017-09-17T01:15:58.763Z,98004.23
2017-09-17T01:18:27.875Z,98009.77
2017-09-17T01:20:56.200Z,98001.22
2017-09-17T01:23:24.539Z,98005.30
2017-09-17T01:25:52.859Z,98002.82
2017-09-17T01:28:23.570Z,98002.30
2017-09-17T01:30:51.911Z,98003.39
2017-09-17T01:33:20.591Z,98003.75
2017-09-17T01:35:48.933Z,98000.77
2017-09-17T01:38:17.255Z,98011.55
2017-09-17T01:40:46.340Z,98004.75
2017-09-17T01:43:14.687Z,98006.77
2017-09-17T01:45:43.020Z,98007.48
2017-09-17T01:48:12.407Z,98002.39
2017-09-17T01:50:40.729Z,98012.75
2017-09-17T01:53:09.044Z,98013.37
2017-09-17T01:55:37.508Z,98004.56
2017-09-17T01:58:05.822Z,98007.47
2017-09-17T02:00:34.152Z,98004.64
2017-09-17T02:03:02.896Z,98017.44
2017-09-17T02:05:32.006Z,98010.52
2017-09-17T02:08:00.324Z,98009.92
2017-09-17T02:10:28.647Z,98009.78
2017-09-17T02:12:56.985Z,98012.85
2017-09-17T02:15:25.308Z,98009.24
2017-09-17T02:17:53.696Z,98013.97
2017-09-17T02:20:22.009Z,98019.59
2017-09-17T02:22:50.353Z,98016.30
2017-09-17T02:25:18.681Z,98020.52
2017-09-17T02:27:47.050Z,98021.91
2017-09-17T02:30:15.461Z,98015.42
2017-09-17T02:32:43.772Z,98015.09
2017-09-17T02:35:12.888Z,98022.34
2017-09-17T02:37:41.199Z,98016.88
2017-09-17T02:40:09.610Z,98021.00
2017-09-17T02:42:37.923Z,98020.20
2017-09-17T02:45:06.246Z,98017.36
2017-09-17T02:47:34.575Z,98017.01
2017-09-17T02:50:02.877Z,98012.12
2017-09-17T02:52:31.204Z,98015.44
2017-09-17T02:54:59.532Z,98008.08
2017-09-17T02:57:27.875Z,98001.30
2017-09-17T02:59:56.982Z,98006.59
2017-09-17T03:02:25.309Z,98003.17
2017-09-17T03:04:53.665Z,98010.98
2017-09-17T03:07:21.995Z,98008.30
2017-09-17T03:09:50.343Z,98012.23
2017-09-17T03:12:18.676Z,98013.78
2017-09-17T03:14:47.572Z,98006.73
2017-09-17T03:17:15.988Z,98003.52
2017-09-17T03:19:44.316Z,98002.67
2017-09-17T03:22:13.419Z,98000.30
2017-09-17T03:24:41.769Z,98003.19
2017-09-17T03:27:10.588Z,98000.17
2017-09-17T03:29:39.675Z,97994.61
2017-09-17T03:32:07.988Z,97989.53
2017-09-17T03:34:36.326Z,97991.81
2017-09-17T03:37:04.659Z,97994.99
2017-09-17T03:39:32.984Z,97994.05
2017-09-17T03:42:01.300Z,97995.08
2017-09-17T03:44:29.895Z,97991.38
2017-09-17T03:46:58.199Z,97991.38
2017-09-17T03:49:26.619Z,97986.69
2017-09-17T03:51:55.726Z,97983.84
2017-09-17T03:54:24.799Z,97986.20
2017-09-17T03:56:53.139Z,97988.88
2017-09-17T03:59:21.461Z,97981.70
2017-09-17T04:01:50.105Z,97984.08
2017-09-17T04:04:18.409Z,97980.50
2017-09-17T04:06:47.127Z,97979.55
2017-09-17T04:09:16.235Z,97985.27
2017-09-17T04:11:44.537Z,97991.27
2017-09-17T04:14:12.866Z,97992.77
2017-09-17T04:16:41.197Z,97992.77
2017-09-17T04:19:10.207Z,98004.27
2017-09-17T04:21:38.517Z,97998.17
2017-09-17T04:24:06.845Z,97995.56
2017-09-17T04:26:35.185Z,98000.09
2017-09-17T04:29:03.523Z,98001.07
2017-09-17T04:31:31.881Z,98008.22
2017-09-17T04:34:00.190Z,98002.65
2017-09-17T04:36:29.030Z,98007.01
2017-09-17T04:38:57.392Z,98011.11
2017-09-17T04:41:25.699Z,98012.28
2017-09-17T04:43:54.036Z,98011.55
2017-09-17T04:46:22.340Z,98010.25
2017-09-17T04:48:51.530Z,98014.42
2017-09-17T04:51:19.838Z,98011.41
2017-09-17T04:53:48.214Z,98016.55
2017-09-17T04:56:16.542Z,98015.21
2017-09-17T04:58:44.860Z,98017.52
2017-09-17T05:01:13.184Z,98026.39
2017-09-17T05:03:41.502Z,98025.98
2017-09-17T05:06:10.180Z,98024.39
2017-09-17T05:08:38.504Z,98021.02
2017-09-17T05:11:06.833Z,98031.66
2017-09-17T05:13:35.164Z,98038.46
2017-09-17T05:16:03.485Z,98031.69
2017-09-17T05:18:31.823Z,98039.86
2017-09-17T05:21:00.193Z,98041.50
2017-09-17T05:23:28.521Z,98048.19
2017-09-17T05:25:56.858Z,98046.48
2017-09-17T05:28:25.210Z,98052.68
2017-09-17T05:30:53.586Z,98054.25
2017-09-17T05:33:22.654Z,98058.55
2017-09-17T05:35:51.078Z,98055.38
2017-09-17T05:38:19.401Z,98058.28
2017-09-17T05:40:47.717Z,98057.11
2017-09-17T05:43:16.817Z,98061.66
2017-09-17T05:45:45.921Z,98058.28
2017-09-17T05:48:14.273Z,98060.27
2017-09-17T05:50:43.098Z,98058.89
2017-09-17T05:53:11.875Z,98062.56
2017-09-17T05:55:40.976Z,98055.07
2017-09-17T05:58:09.306Z,98058.28
2017-09-17T06:00:37.640Z,98054.77
2017-09-17T06:03:05.951Z,98058.34
2017-09-17T06:05:34.300Z,98064.36
2017-09-17T06:08:02.639Z,98063.87
2017-09-17T06:10:30.986Z,98067.59
2017-09-17T06:12:59.427Z,98068.40
2017-09-17T06:15:28.528Z,98068.27
2017-09-17T06:17:56.855Z,98064.95
2017-09-17T06:20:25.200Z,98071.55
2017-09-17T06:22:53.537Z,98074.84
2017-09-17T06:25:22.636Z,98079.78
2017-09-17T06:27:51.242Z,98082.55
2017-09-17T06:30:20.337Z,98080.33
2017-09-17T06:32:48.657Z,98078.31
2017-09-17T06:35:17.060Z,98078.48
2017-09-17T06:37:49.811Z,98079.92
2017-09-17T06:40:18.374Z,98083.61
2017-09-17T06:42:47.959Z,98079.52
2017-09-17T06:45:17.712Z,98080.48
2017-09-17T06:47:46.852Z,98078.77
2017-09-17T06:50:15.938Z,98076.06
2017-09-17T06:52:44.849Z,98085.63
2017-09-17T06:55:13.660Z,98079.09
2017-09-17T06:57:43.307Z,98081.67
2017-09-17T07:00:11.631Z,98082.42
2017-09-17T07:02:39.992Z,98083.38
2017-09-17T07:05:08.337Z,98083.13
2017-09-17T07:07:36.656Z,98096.59
2017-09-17T07:10:04.997Z,98090.89
2017-09-17T07:12:33.314Z,98091.30
2017-09-17T07:15:01.661Z,98099.72
2017-09-17T07:17:29.980Z,98094.63
2017-09-17T07:19:58.569Z,98096.70
2017-09-17T07:22:26.884Z,98095.39
2017-09-17T07:24:55.217Z,98093.73
2017-09-17T07:27:23.569Z,98096.88
2017-09-17T07:29:51.889Z,98096.88
2017-09-17T07:32:21.086Z,98093.94
2017-09-17T07:34:49.404Z,98087.15
2017-09-17T07:37:18.015Z,98095.03
2017-09-17T07:39:46.345Z,98093.27
2017-09-17T07:42:15.461Z,98093.95
2017-09-17T07:44:43.804Z,98098.59
2017-09-17T07:47:12.123Z,98102.82
2017-09-17T07:49:40.494Z,98099.66
2017-09-17T07:52:08.815Z,98100.94
2017-09-17T07:54:37.148Z,98102.23
2017-09-17T07:57:06.270Z,98110.17
2017-09-17T07:59:34.627Z,98101.00
2017-09-17T08:02:03.815Z,98106.70
2017-09-17T08:04:32.918Z,98111.67
2017-09-17T08:07:02.145Z,98105.69
2017-09-17T08:09:30.460Z,98106.04
2017-09-17T08:11:58.801Z,98103.77
2017-09-17T08:14:27.171Z,98103.56
2017-09-17T08:16:56.417Z,98096.53
2017-09-17T08:19:24.760Z,98097.75
2017-09-17T08:21:53.078Z,98097.34
2017-09-17T08:24:22.442Z,98091.91
2017-09-17T08:26:50.776Z,98092.67
2017-09-17T08:29:19.146Z,98093.89
2017-09-17T08:31:47.474Z,98096.77
2017-09-17T08:34:15.825Z,98097.27
2017-09-17T08:36:44.921Z,98092.87
2017-09-17T08:39:14.126Z,98090.19
2017-09-17T08:41:43.512Z,98096.44
2017-09-17T08:44:11.857Z,98099.52
2017-09-17T08:46:40.175Z,98096.62
2017-09-17T08:49:08.528Z,98094.69
2017-09-17T08:51:36.871Z,98091.92
2017-09-17T08:54:05.226Z,98090.23
2017-09-17T08:56:33.555Z,98088.20
2017-09-17T08:59:01.896Z,98085.28
2017-09-17T09:01:30.222Z,98089.77
2017-09-17T09:03:58.539Z,98083.42
2017-09-17T09:06:27.644Z,98084.32
2017-09-17T09:08:56.847Z,98083.62
2017-09-17T09:11:25.209Z,98084.14
2017-09-17T09:13:54.304Z,98085.72
2017-09-17T09:16:23.514Z,98077.58
2017-09-17T09:18:52.628Z,98071.57
2017-09-17T09:21:20.962Z,98077.63
2017-09-17T09:23:49.296Z,98071.05
2017-09-17T09:26:17.613Z,98066.92
2017-09-17T09:28:45.955Z,98067.92
2017-09-17T09:31:14.266Z,98069.30
2017-09-17T09:33:42.612Z,98064.30
2017-09-17T09:36:10.974Z,98063.70
2017-09-17T09:38:39.306Z,98063.01
2017-09-17T09:41:07.657Z,98060.06
2017-09-17T09:43:35.975Z,98057.25
2017-09-17T09:46:04.388Z,98054.94
2017-09-17T09:48:33.476Z,98054.23
2017-09-17T09:51:02.611Z,98055.73
2017-09-17T09:53:30.955Z,98052.50
2017-09-17T09:55:59.461Z,98040.98
2017-09-17T09:58:27.829Z,98044.16
2017-09-17T10:00:56.161Z,98046.22
2017-09-17T10:03:24.517Z,98050.08
2017-09-17T10:05:52.845Z,98045.76
2017-09-17T10:08:23.592Z,98048.57
2017-09-17T10:10:51.930Z,98046.98
2017-09-17T10:13:20.257Z,98045.02
2017-09-17T10:15:48.613Z,98037.03
2017-09-17T10:18:16.941Z,98038.61
2017-09-17T10:20:45.271Z,98038.48
2017-09-17T10:23:14.073Z,98034.18
2017-09-17T10:25:43.452Z,98035.56
2017-09-17T10:28:11.864Z,98027.73
2017-09-17T10:30:40.176Z,98028.16
2017-09-17T10:33:08.529Z,98026.27
2017-09-17T10:35:36.851Z,98021.54
2017-09-17T10:38:05.222Z,98021.37
2017-09-17T10:40:33.569Z,98022.59
2017-09-17T10:43:01.916Z,98022.00
2017-09-17T10:45:30.246Z,98007.23
2017-09-17T10:47:58.583Z,98016.25
2017-09-17T10:50:26.923Z,98012.91
2017-09-17T10:52:55.249Z,98010.64
2017-09-17T10:55:24.347Z,98003.09
2017-09-17T10:57:52.683Z,98010.02
2017-09-17T11:00:21.080Z,98013.14
2017-09-17T11:02:49.395Z,98006.91
2017-09-17T11:05:18.656Z,98010.23
2017-09-17T11:07:47.000Z,98009.09
2017-09-17T11:10:15.318Z,98007.55
2017-09-17T11:12:43.672Z,98012.09
2017-09-17T11:15:12.010Z,98002.47
2017-09-17T11:17:40.616Z,97995.27
2017-09-17T11:20:08.966Z,97989.52
2017-09-17T11:22:38.078Z,97989.09
2017-09-17T11:25:06.422Z,97990.17
2017-09-17T11:27:34.803Z,97981.63
2017-09-17T11:30:03.139Z,97983.58
2017-09-17T11:32:31.469Z,97988.77
2017-09-17T11:35:00.573Z,97988.50
2017-09-17T11:37:28.946Z,97985.38
2017-09-17T11:39:57.278Z,97986.57
2017-09-17T11:42:25.649Z,97983.78
2017-09-17T11:44:54.744Z,97982.87
2017-09-17T11:47:23.080Z,97986.19
2017-09-17T11:49:51.409Z,97985.94
2017-09-17T11:52:20.157Z,97980.32
2017-09-17T11:54:48.497Z,97977.08
2017-09-17T11:57:16.833Z,97979.64
2017-09-17T11:59:45.177Z,97978.32
2017-09-17T12:02:13.558Z,97975.94
2017-09-17T12:04:41.955Z,97970.73
2017-09-17T12:07:11.047Z,97965.34
2017-09-17T12:09:39.702Z,97968.08
2017-09-17T12:12:08.032Z,97958.15
2017-09-17T12:14:36.528Z,97969.77
2017-09-17T12:17:04.985Z,97966.04
2017-09-17T12:19:34.060Z,97963.34
2017-09-17T12:22:02.485Z,97965.78
2017-09-17T12:24:30.836Z,97960.30
2017-09-17T12:27:00.231Z,97964.23
2017-09-17T12:29:28.656Z,97962.58
2017-09-17T12:31:57.002Z,97956.73
2017-09-17T12:34:25.336Z,97953.12
2017-09-17T12:36:53.671Z,97951.39
2017-09-17T12:39:22.011Z,97945.31
2017-09-17T12:41:50.327Z,97948.75
2017-09-17T12:44:18.895Z,97945.88
2017-09-17T12:46:47.252Z,97942.87
2017-09-17T12:49:15.797Z,97933.10
2017-09-17T12:51:44.284Z,97935.98
2017-09-17T12:54:12.608Z,97932.33
2017-09-17T12:56:40.947Z,97935.48
2017-09-17T12:59:09.314Z,97933.36
2017-09-17T13:01:37.854Z,97934.61
2017-09-17T13:04:06.250Z,97937.02
2017-09-17T13:06:34.611Z,97936.64
2017-09-17T13:09:02.952Z,97937.88
2017-09-17T13:11:31.290Z,97940.38
2017-09-17T13:14:00.410Z,97938.30
2017-09-17T13:16:28.741Z,97930.83
2017-09-17T13:18:57.088Z,97927.53
2017-09-17T13:21:25.433Z,97924.45
2017-09-17T13:23:53.775Z,97922.34
2017-09-17T13:26:22.329Z,97925.76
2017-09-17T13:28:50.655Z,97920.21
2017-09-17T13:31:19.165Z,97913.52
2017-09-17T13:33:47.491Z,97907.84
2017-09-17T13:36:16.093Z,97906.56
2017-09-17T13:38:44.436Z,97910.66
2017-09-17T13:41:13.010Z,97921.74
2017-09-17T13:43:41.394Z,97909.80
2017-09-17T13:46:09.719Z,97912.31
2017-09-17T13:48:39.274Z,97910.33
2017-09-17T13:51:07.609Z,97907.20
2017-09-17T13:53:35.949Z,97910.22
2017-09-17T13:56:04.324Z,97905.95
2017-09-17T13:58:32.695Z,97916.22
2017-09-17T14:01:01.429Z,97911.09
2017-09-17T14:03:29.863Z,97912.38
2017-09-17T14:05:58.447Z,97904.18
2017-09-17T14:08:36.756Z,97910.50
2017-09-17T14:11:06.091Z,97904.68
2017-09-17T14:13:34.449Z,97910.36
2017-09-17T14:16:02.829Z,97907.55
2017-09-17T14:18:31.210Z,97906.43
2017-09-17T14:20:59.542Z,97906.49
2017-09-17T14:23:28.932Z,97904.77
2017-09-17T14:25:58.519Z,97909.06
2017-09-17T14:28:26.884Z,97903.88
2017-09-17T14:30:55.252Z,97902.71
2017-09-17T14:33:23.586Z,97901.29
2017-09-17T14:35:51.947Z,97898.63
2017-09-17T14:38:20.316Z,97895.47
2017-09-17T14:40:48.668Z,97900.05
2017-09-17T14:43:17.020Z,97900.36
2017-09-17T14:45:46.119Z,97903.75
2017-09-17T14:48:15.246Z,97893.92
2017-09-17T14:50:43.555Z,97898.39
2017-09-17T14:53:12.094Z,97894.03
2017-09-17T14:55:41.421Z,97895.88
2017-09-17T14:58:10.710Z,97895.45
2017-09-17T15:00:39.074Z,97898.69
2017-09-17T15:03:07.454Z,97897.93
2017-09-17T15:05:36.752Z,97888.30
2017-09-17T15:08:05.103Z,97894.90
2017-09-17T15:10:33.555Z,97900.98
2017-09-17T15:13:01.889Z,97903.75
2017-09-17T15:15:30.628Z,97898.52
2017-09-17T15:18:00.168Z,97897.95
2017-09-17T15:20:28.564Z,97901.03
2017-09-17T15:22:57.871Z,97904.35
2017-09-17T15:25:26.240Z,97897.03
2017-09-17T15:27:55.604Z,97901.77
2017-09-17T15:30:23.953Z,97906.23
2017-09-17T15:32:52.314Z,97912.19
2017-09-17T15:35:20.710Z,97908.83
2017-09-17T15:37:49.072Z,97911.01
2017-09-17T15:40:17.544Z,97909.17
2017-09-17T15:42:46.728Z,97913.62
2017-09-17T15:45:15.124Z,97918.37
2017-09-17T15:47:45.360Z,97916.02
2017-09-17T15:50:16.152Z,97919.36
2017-09-17T15:52:44.556Z,97922.30
2017-09-17T15:55:13.868Z,97918.65
2017-09-17T15:57:44.108Z,97919.16
2017-09-17T16:00:12.468Z,97922.09
2017-09-17T16:02:43.491Z,97920.95
2017-09-17T16:05:12.966Z,97925.16
2017-09-17T16:07:41.340Z,97929.07
2017-09-17T16:10:10.644Z,97931.34
2017-09-17T16:12:43.934Z,97924.41
2017-09-17T16:15:12.287Z,97925.72
2017-09-17T16:17:40.973Z,97935.36
2017-09-17T16:20:09.355Z,97935.66
2017-09-17T16:22:37.754Z,97933.47
2017-09-17T16:25:07.062Z,97935.09
2017-09-17T16:27:35.490Z,97934.14
2017-09-17T16:30:04.969Z,97935.56
2017-09-17T16:32:34.314Z,97931.27
2017-09-17T16:35:03.423Z,97933.98
2017-09-17T16:37:31.765Z,97941.01
2017-09-17T16:40:01.308Z,97941.36
2017-09-17T16:42:29.685Z,97937.68
2017-09-17T16:44:58.062Z,97943.63
2017-09-17T16:47:27.637Z,97941.78
2017-09-17T16:49:56.081Z,97940.20
2017-09-17T16:52:26.575Z,97943.37
2017-09-17T16:54:55.709Z,97944.31
2017-09-17T16:57:24.254Z,97947.89
2017-09-17T16:59:53.582Z,97944.51
2017-09-17T17:02:22.678Z,97947.78
2017-09-17T17:04:54.345Z,97949.22
2017-09-17T17:07:26.360Z,97949.63
2017-09-17T17:09:54.791Z,97947.24
2017-09-17T17:12:23.138Z,97950.66
2017-09-17T17:14:52.453Z,97950.54
2017-09-17T17:17:20.836Z,97960.48
2017-09-17T17:19:49.203Z,97965.23
2017-09-17T17:22:18.507Z,97966.56
2017-09-17T17:24:46.871Z,97963.12
2017-09-17T17:27:16.009Z,97966.66
2017-09-17T17:29:44.374Z,97968.59
2017-09-17T17:32:12.774Z,97974.94
2017-09-17T17:34:41.341Z,97980.81
2017-09-17T17:37:11.390Z,97979.29
2017-09-17T17:39:39.944Z,97982.23
2017-09-17T17:42:08.300Z,97990.48
2017-09-17T17:44:39.470Z,97993.33
2017-09-17T17:47:07.889Z,97997.17
2017-09-17T17:49:36.220Z,97999.48
2017-09-17T17:52:05.367Z,98003.22
2017-09-17T17:54:33.944Z,97999.97
2017-09-17T17:57:02.311Z,98006.94
2017-09-17T17:59:30.680Z,98013.50
2017-09-17T18:01:59.034Z,98014.53
2017-09-17T18:04:29.275Z,98015.31
2017-09-17T18:06:57.658Z,98019.66
2017-09-17T18:09:26.301Z,98016.03
2017-09-17T18:11:54.700Z,98019.66
2017-09-17T18:14:23.995Z,98017.34
2017-09-17T18:16:53.339Z,98022.46
2017-09-17T18:19:23.622Z,98028.41
2017-09-17T18:21:52.850Z,98031.44
2017-09-17T18:24:21.656Z,98028.40
2017-09-17T18:26:57.106Z,98031.44
2017-09-17T18:29:28.013Z,98033.16
2017-09-17T18:32:10.342Z,98037.79
2017-09-17T18:37:28.324Z,98031.19
2017-09-17T18:39:56.670Z,98047.98
2017-09-17T18:42:25.042Z,98043.59
2017-09-17T18:44:57.112Z,98049.95
2017-09-17T18:47:25.467Z,98046.06
2017-09-17T18:49:54.788Z,98048.77
2017-09-17T18:52:24.123Z,98046.23
2017-09-17T18:54:52.500Z,98054.95
2017-09-17T18:57:20.834Z,98051.52
2017-09-17T18:59:50.222Z,98062.36
2017-09-17T19:02:18.650Z,98051.19
2017-09-17T19:05:08.276Z,98057.06
2017-09-17T19:07:37.718Z,98058.66
2017-09-17T19:10:07.011Z,98059.72
2017-09-17T19:12:36.316Z,98059.84
2017-09-17T19:15:05.627Z,98066.27
2017-09-17T19:17:34.044Z,98067.23
2017-09-17T19:20:02.381Z,98071.02
2017-09-17T19:22:30.759Z,98069.97
2017-09-17T19:25:00.068Z,98073.94
2017-09-17T19:27:28.415Z,98081.56
2017-09-17T19:29:56.829Z,98082.42
2017-09-17T19:32:25.203Z,98083.85
2017-09-17T19:34:54.511Z,98081.13
2017-09-17T19:37:22.876Z,98082.43
2017-09-17T19:39:52.507Z,98085.34
2017-09-17T19:42:20.871Z,98082.47
2017-09-17T19:44:50.169Z,98082.75
2017-09-17T19:47:19.484Z,98085.05
2017-09-17T19:49:47.849Z,98088.02
2017-09-17T19:52:17.162Z,98086.07
2017-09-17T19:54:46.454Z,98088.95
2017-09-17T19:57:15.895Z,98088.39
2017-09-17T19:59:44.443Z,98089.92
2017-09-17T20:02:12.804Z,98090.24
2017-09-17T20:04:42.148Z,98089.72
2017-09-17T20:07:10.501Z,98091.99
2017-09-17T20:09:38.928Z,98087.56
2017-09-17T20:12:07.264Z,98093.70
2017-09-17T20:14:38.878Z,98092.42
2017-09-17T20:17:07.409Z,98086.09
2017-09-17T20:19:36.702Z,98088.19
2017-09-17T20:22:06.015Z,98092.06
2017-09-17T20:24:35.306Z,98090.63
2017-09-17T20:27:04.652Z,98091.97
2017-09-17T20:29:32.998Z,98090.38
2017-09-17T20:32:02.307Z,98083.11
2017-09-17T20:34:30.683Z,98088.08
2017-09-17T20:36:59.967Z,98090.28
2017-09-17T20:39:29.289Z,98088.78
2017-09-17T20:41:57.662Z,98093.85
2017-09-17T20:44:26.964Z,98092.98
2017-09-17T20:46:56.263Z,98094.17
2017-09-17T20:49:25.597Z,98104.95
2017-09-17T20:51:54.869Z,98109.19
2017-09-17T20:54:24.154Z,98107.96
2017-09-17T20:56:53.465Z,98110.28
2017-09-17T20:59:22.790Z,98108.95
2017-09-17T21:01:51.155Z,98107.69
2017-09-17T21:04:20.449Z,98110.86
2017-09-17T21:06:49.771Z,98110.02
2017-09-17T21:09:18.125Z,98109.24
2017-09-17T21:11:47.431Z,98109.19
2017-09-17T21:14:16.755Z,98108.43
2017-09-17T21:16:45.095Z,98112.69
2017-09-17T21:19:13.490Z,98122.81
2017-09-17T21:21:42.776Z,98121.27
2017-09-17T21:24:11.173Z,98121.14
2017-09-17T21:26:40.472Z,98124.02
2017-09-17T21:29:09.776Z,98117.91
2017-09-17T21:31:39.166Z,98121.44
2017-09-17T21:34:07.526Z,98130.17
2017-09-17T21:36:35.876Z,98131.28
2017-09-17T21:39:04.201Z,98129.32
2017-09-17T21:41:32.604Z,98129.92
2017-09-17T21:44:01.966Z,98130.08
2017-09-17T21:46:30.455Z,98137.62
2017-09-17T21:48:59.042Z,98134.81
2017-09-17T21:51:28.562Z,98132.16
2017-09-17T21:53:56.957Z,98129.97
2017-09-17T21:56:26.258Z,98139.06
2017-09-17T21:58:55.858Z,98138.52
2017-09-17T22:01:25.154Z,98143.11
2017-09-17T22:03:53.522Z,98155.34
2017-09-17T22:06:21.932Z,98148.55
2017-09-17T22:08:51.230Z,98151.05
2017-09-17T22:11:20.528Z,98148.69
2017-09-17T22:13:48.904Z,98148.16
2017-09-17T22:16:18.215Z,98153.73
2017-09-17T22:18:47.483Z,98147.41
2017-09-17T22:21:15.891Z,98145.71
2017-09-17T22:23:45.218Z,98149.82
2017-09-17T22:26:13.569Z,98146.63
2017-09-17T22:28:42.890Z,98147.09
2017-09-17T22:31:11.251Z,98144.67
2017-09-17T22:33:40.971Z,98149.36
2017-09-17T22:36:11.095Z,98143.30
2017-09-17T22:38:40.413Z,98151.54
2017-09-17T22:41:08.762Z,98145.95
2017-09-17T22:43:37.154Z,98143.64
2017-09-17T22:46:06.457Z,98145.73
2017-09-17T22:48:35.731Z,98144.53
2017-09-17T22:51:04.142Z,98146.58
2017-09-17T22:53:33.458Z,98143.30
2017-09-17T22:56:02.231Z,98142.19
2017-09-17T22:58:30.544Z,98147.53
2017-09-17T23:00:58.889Z,98144.03
2017-09-17T23:03:28.192Z,98150.69
2017-09-17T23:05:57.465Z,98148.36
2017-09-17T23:08:25.866Z,98147.55
2017-09-17T23:10:55.686Z,98145.56
2017-09-17T23:13:24.572Z,98151.67
2017-09-17T23:15:52.902Z,98150.42
2017-09-17T23:18:21.233Z,98147.20
2017-09-17T23:20:50.549Z,98146.53
2017-09-17T23:23:19.220Z,98146.81
2017-09-17T23:25:48.511Z,98152.77
2017-09-17T23:28:16.879Z,98155.16
2017-09-17T23:30:45.693Z,98147.36
2017-09-17T23:33:14.032Z,98153.87
2017-09-17T23:35:42.350Z,98149.20
2017-09-17T23:38:11.719Z,98148.09
2017-09-17T23:40:40.067Z,98152.91
2017-09-17T23:43:08.418Z,98152.36
2017-09-17T23:45:37.708Z,98149.56
2017-09-17T23:48:07.028Z,98153.87
2017-09-17T23:50:35.391Z,98154.02
2017-09-17T23:53:04.677Z,98158.19
2017-09-17T23:55:33.080Z,98156.14
2017-09-17T23:58:02.368Z,98147.86
